sensor_id;sensor_type;location;lat;lon;timestamp;P1;durP1;ratioP1;P2;durP2;ratioP2
22415;SDS011;12204;50.600;4.608;2023-11-19T00:02:42;6.28;;;1.90;;
22415;SDS011;12204;50.600;4.608;2023-11-19T00:07:47;6.10;;;2.08;;
22415;SDS011;12204;50.600;4.608;2023-11-19T00:12:51;7.22;;;2.30;;
22415;SDS011;12204;50.600;4.608;2023-11-19T00:17:55;12.38;;;2.50;;
22415;SDS011;12204;50.600;4.608;2023-11-19T00:23:03;8.50;;;2.60;;
22415;SDS011;12204;50.600;4.608;2023-11-19T00:28:07;6.75;;;2.20;;
22415;SDS011;12204;50.600;4.608;2023-11-19T00:33:10;8.77;;;2.40;;
22415;SDS011;12204;50.600;4.608;2023-11-19T00:38:15;7.85;;;2.40;;
22415;SDS011;12204;50.600;4.608;2023-11-19T00:43:19;7.70;;;2.38;;
22415;SDS011;12204;50.600;4.608;2023-11-19T00:48:23;8.00;;;2.20;;
22415;SDS011;12204;50.600;4.608;2023-11-19T00:53:29;7.75;;;2.40;;
22415;SDS011;12204;50.600;4.608;2023-11-19T00:58:33;7.38;;;2.13;;
22415;SDS011;12204;50.600;4.608;2023-11-19T01:03:37;9.00;;;2.38;;
22415;SDS011;12204;50.600;4.608;2023-11-19T01:08:43;6.95;;;2.10;;
22415;SDS011;12204;50.600;4.608;2023-11-19T01:13:47;6.45;;;2.00;;
22415;SDS011;12204;50.600;4.608;2023-11-19T01:18:51;6.57;;;2.10;;
22415;SDS011;12204;50.600;4.608;2023-11-19T01:24:13;7.28;;;2.08;;
22415;SDS011;12204;50.600;4.608;2023-11-19T01:29:17;6.88;;;2.20;;
22415;SDS011;12204;50.600;4.608;2023-11-19T01:34:21;6.85;;;2.20;;
22415;SDS011;12204;50.600;4.608;2023-11-19T01:39:26;7.72;;;2.20;;
22415;SDS011;12204;50.600;4.608;2023-11-19T01:44:29;6.40;;;2.10;;
22415;SDS011;12204;50.600;4.608;2023-11-19T01:49:33;6.60;;;2.20;;
22415;SDS011;12204;50.600;4.608;2023-11-19T01:54:39;6.95;;;1.90;;
22415;SDS011;12204;50.600;4.608;2023-11-19T01:59:42;6.18;;;1.90;;
22415;SDS011;12204;50.600;4.608;2023-11-19T02:04:46;7.97;;;2.00;;
22415;SDS011;12204;50.600;4.608;2023-11-19T02:09:53;7.15;;;2.05;;
22415;SDS011;12204;50.600;4.608;2023-11-19T02:14:59;6.88;;;1.90;;
22415;SDS011;12204;50.600;4.608;2023-11-19T02:20:04;6.90;;;1.88;;
22415;SDS011;12204;50.600;4.608;2023-11-19T02:25:17;7.43;;;2.00;;
22415;SDS011;12204;50.600;4.608;2023-11-19T02:30:29;6.05;;;1.80;;
22415;SDS011;12204;50.600;4.608;2023-11-19T02:35:33;6.05;;;1.90;;
22415;SDS011;12204;50.600;4.608;2023-11-19T02:40:37;8.88;;;1.95;;
22415;SDS011;12204;50.600;4.608;2023-11-19T02:45:42;5.80;;;1.60;;
22415;SDS011;12204;50.600;4.608;2023-11-19T02:50:47;6.93;;;1.73;;
22415;SDS011;12204;50.600;4.608;2023-11-19T02:55:51;7.57;;;1.80;;
22415;SDS011;12204;50.600;4.608;2023-11-19T03:00:59;5.95;;;1.90;;
22415;SDS011;12204;50.600;4.608;2023-11-19T03:06:11;5.57;;;1.73;;
22415;SDS011;12204;50.600;4.608;2023-11-19T03:11:14;7.13;;;1.83;;
22415;SDS011;12204;50.600;4.608;2023-11-19T03:16:19;6.15;;;1.60;;
22415;SDS011;12204;50.600;4.608;2023-11-19T03:21:26;8.23;;;1.70;;
22415;SDS011;12204;50.600;4.608;2023-11-19T03:26:31;9.82;;;1.73;;
22415;SDS011;12204;50.600;4.608;2023-11-19T03:31:36;9.45;;;1.98;;
22415;SDS011;12204;50.600;4.608;2023-11-19T03:36:46;6.60;;;1.63;;
22415;SDS011;12204;50.600;4.608;2023-11-19T03:41:50;10.55;;;1.83;;
22415;SDS011;12204;50.600;4.608;2023-11-19T03:46:55;6.47;;;1.58;;
22415;SDS011;12204;50.600;4.608;2023-11-19T03:51:58;7.32;;;1.70;;
22415;SDS011;12204;50.600;4.608;2023-11-19T03:57:02;6.22;;;1.52;;
22415;SDS011;12204;50.600;4.608;2023-11-19T04:02:08;7.75;;;1.52;;
22415;SDS011;12204;50.600;4.608;2023-11-19T04:07:12;5.47;;;1.40;;
22415;SDS011;12204;50.600;4.608;2023-11-19T04:12:15;5.40;;;1.40;;
22415;SDS011;12204;50.600;4.608;2023-11-19T04:17:20;4.90;;;1.30;;
22415;SDS011;12204;50.600;4.608;2023-11-19T04:22:24;5.40;;;1.33;;
22415;SDS011;12204;50.600;4.608;2023-11-19T04:27:27;4.95;;;1.42;;
22415;SDS011;12204;50.600;4.608;2023-11-19T04:32:32;6.72;;;1.63;;
22415;SDS011;12204;50.600;4.608;2023-11-19T04:37:36;6.57;;;1.52;;
22415;SDS011;12204;50.600;4.608;2023-11-19T04:42:40;5.82;;;1.30;;
22415;SDS011;12204;50.600;4.608;2023-11-19T04:47:45;4.90;;;1.27;;
22415;SDS011;12204;50.600;4.608;2023-11-19T04:52:48;4.90;;;1.30;;
22415;SDS011;12204;50.600;4.608;2023-11-19T04:57:53;5.88;;;1.40;;
22415;SDS011;12204;50.600;4.608;2023-11-19T05:02:58;6.75;;;1.30;;
22415;SDS011;12204;50.600;4.608;2023-11-19T05:08:02;4.85;;;1.30;;
22415;SDS011;12204;50.600;4.608;2023-11-19T05:13:07;4.80;;;1.20;;
22415;SDS011;12204;50.600;4.608;2023-11-19T05:18:13;5.60;;;1.40;;
22415;SDS011;12204;50.600;4.608;2023-11-19T05:23:16;5.57;;;1.40;;
22415;SDS011;12204;50.600;4.608;2023-11-19T05:28:22;5.03;;;1.23;;
22415;SDS011;12204;50.600;4.608;2023-11-19T05:33:27;5.07;;;1.20;;
22415;SDS011;12204;50.600;4.608;2023-11-19T05:38:30;5.57;;;1.20;;
22415;SDS011;12204;50.600;4.608;2023-11-19T05:43:34;4.65;;;1.17;;
22415;SDS011;12204;50.600;4.608;2023-11-19T05:48:40;6.15;;;1.10;;
22415;SDS011;12204;50.600;4.608;2023-11-19T05:53:44;5.60;;;1.27;;
22415;SDS011;12204;50.600;4.608;2023-11-19T05:58:48;5.57;;;1.40;;
22415;SDS011;12204;50.600;4.608;2023-11-19T06:03:53;5.18;;;1.23;;
22415;SDS011;12204;50.600;4.608;2023-11-19T06:08:57;5.38;;;1.40;;
22415;SDS011;12204;50.600;4.608;2023-11-19T06:14:13;6.40;;;1.30;;
22415;SDS011;12204;50.600;4.608;2023-11-19T06:19:18;8.18;;;1.50;;
22415;SDS011;12204;50.600;4.608;2023-11-19T06:24:22;6.47;;;1.20;;
22415;SDS011;12204;50.600;4.608;2023-11-19T06:29:25;5.20;;;1.17;;
22415;SDS011;12204;50.600;4.608;2023-11-19T06:34:30;4.78;;;1.50;;
22415;SDS011;12204;50.600;4.608;2023-11-19T06:39:34;5.40;;;1.05;;
22415;SDS011;12204;50.600;4.608;2023-11-19T06:44:38;5.75;;;1.17;;
22415;SDS011;12204;50.600;4.608;2023-11-19T06:49:44;4.32;;;1.10;;
22415;SDS011;12204;50.600;4.608;2023-11-19T06:54:48;5.53;;;1.15;;
22415;SDS011;12204;50.600;4.608;2023-11-19T06:59:51;4.95;;;1.13;;
22415;SDS011;12204;50.600;4.608;2023-11-19T07:04:56;5.50;;;1.30;;
22415;SDS011;12204;50.600;4.608;2023-11-19T07:10:01;5.15;;;1.30;;
22415;SDS011;12204;50.600;4.608;2023-11-19T07:15:06;6.50;;;1.40;;
22415;SDS011;12204;50.600;4.608;2023-11-19T07:20:12;5.68;;;1.33;;
22415;SDS011;12204;50.600;4.608;2023-11-19T07:25:17;5.75;;;1.33;;
22415;SDS011;12204;50.600;4.608;2023-11-19T07:30:20;5.32;;;1.30;;
22415;SDS011;12204;50.600;4.608;2023-11-19T07:35:26;7.95;;;1.55;;
22415;SDS011;12204;50.600;4.608;2023-11-19T07:40:32;5.10;;;1.10;;
22415;SDS011;12204;50.600;4.608;2023-11-19T07:45:35;5.25;;;1.17;;
22415;SDS011;12204;50.600;4.608;2023-11-19T07:50:40;4.88;;;1.20;;
22415;SDS011;12204;50.600;4.608;2023-11-19T07:55:44;4.25;;;1.13;;
22415;SDS011;12204;50.600;4.608;2023-11-19T08:00:47;5.53;;;1.20;;
22415;SDS011;12204;50.600;4.608;2023-11-19T08:05:54;4.55;;;1.15;;
22415;SDS011;12204;50.600;4.608;2023-11-19T08:10:59;3.92;;;1.02;;
22415;SDS011;12204;50.600;4.608;2023-11-19T08:16:03;5.18;;;1.17;;
22415;SDS011;12204;50.600;4.608;2023-11-19T08:21:09;5.40;;;1.10;;
22415;SDS011;12204;50.600;4.608;2023-11-19T08:26:14;6.32;;;1.20;;
22415;SDS011;12204;50.600;4.608;2023-11-19T08:31:22;5.82;;;1.25;;
22415;SDS011;12204;50.600;4.608;2023-11-19T08:36:28;8.27;;;1.38;;
22415;SDS011;12204;50.600;4.608;2023-11-19T08:41:33;11.13;;;1.45;;
22415;SDS011;12204;50.600;4.608;2023-11-19T08:46:36;7.93;;;1.23;;
22415;SDS011;12204;50.600;4.608;2023-11-19T08:51:42;16.27;;;1.77;;
22415;SDS011;12204;50.600;4.608;2023-11-19T08:56:46;8.05;;;1.38;;
22415;SDS011;12204;50.600;4.608;2023-11-19T09:01:50;9.23;;;1.75;;
22415;SDS011;12204;50.600;4.608;2023-11-19T09:06:57;6.50;;;1.33;;
22415;SDS011;12204;50.600;4.608;2023-11-19T09:12:00;8.93;;;1.50;;
22415;SDS011;12204;50.600;4.608;2023-11-19T09:17:04;10.98;;;1.83;;
22415;SDS011;12204;50.600;4.608;2023-11-19T09:22:09;13.43;;;1.90;;
22415;SDS011;12204;50.600;4.608;2023-11-19T09:27:13;11.10;;;1.65;;
22415;SDS011;12204;50.600;4.608;2023-11-19T09:32:17;14.13;;;1.90;;
22415;SDS011;12204;50.600;4.608;2023-11-19T09:37:22;9.45;;;1.88;;
22415;SDS011;12204;50.600;4.608;2023-11-19T09:42:25;10.10;;;1.70;;
22415;SDS011;12204;50.600;4.608;2023-11-19T09:47:29;10.63;;;1.85;;
22415;SDS011;12204;50.600;4.608;2023-11-19T09:52:34;13.60;;;2.03;;
22415;SDS011;12204;50.600;4.608;2023-11-19T09:57:38;12.73;;;2.00;;
22415;SDS011;12204;50.600;4.608;2023-11-19T10:02:43;16.77;;;2.40;;
22415;SDS011;12204;50.600;4.608;2023-11-19T10:07:50;14.40;;;2.65;;
22415;SDS011;12204;50.600;4.608;2023-11-19T10:12:53;13.38;;;2.55;;
22415;SDS011;12204;50.600;4.608;2023-11-19T10:17:58;14.45;;;2.30;;
22415;SDS011;12204;50.600;4.608;2023-11-19T10:23:03;14.80;;;2.42;;
22415;SDS011;12204;50.600;4.608;2023-11-19T10:28:07;12.30;;;2.13;;
22415;SDS011;12204;50.600;4.608;2023-11-19T10:33:11;14.70;;;2.40;;
22415;SDS011;12204;50.600;4.608;2023-11-19T10:38:20;12.68;;;2.30;;
22415;SDS011;12204;50.600;4.608;2023-11-19T10:43:24;22.55;;;3.33;;
22415;SDS011;12204;50.600;4.608;2023-11-19T10:48:29;24.52;;;3.60;;
22415;SDS011;12204;50.600;4.608;2023-11-19T10:53:34;24.33;;;3.78;;
22415;SDS011;12204;50.600;4.608;2023-11-19T11:03:47;24.77;;;4.00;;
22415;SDS011;12204;50.600;4.608;2023-11-19T11:08:56;26.58;;;3.65;;
22415;SDS011;12204;50.600;4.608;2023-11-19T11:14:01;20.17;;;3.17;;
22415;SDS011;12204;50.600;4.608;2023-11-19T11:19:05;19.10;;;3.28;;
22415;SDS011;12204;50.600;4.608;2023-11-19T11:24:17;17.58;;;3.33;;
22415;SDS011;12204;50.600;4.608;2023-11-19T11:29:41;17.75;;;2.92;;
22415;SDS011;12204;50.600;4.608;2023-11-19T11:34:58;14.65;;;2.90;;
22415;SDS011;12204;50.600;4.608;2023-11-19T11:40:23;16.70;;;3.00;;
22415;SDS011;12204;50.600;4.608;2023-11-19T11:45:37;17.13;;;2.75;;
22415;SDS011;12204;50.600;4.608;2023-11-19T11:50:48;12.53;;;2.60;;
22415;SDS011;12204;50.600;4.608;2023-11-19T11:56:01;13.82;;;2.80;;
22415;SDS011;12204;50.600;4.608;2023-11-19T12:01:05;13.88;;;3.00;;
22415;SDS011;12204;50.600;4.608;2023-11-19T12:06:08;15.05;;;2.95;;
22415;SDS011;12204;50.600;4.608;2023-11-19T12:11:15;11.45;;;2.38;;
22415;SDS011;12204;50.600;4.608;2023-11-19T12:16:20;12.03;;;2.70;;
22415;SDS011;12204;50.600;4.608;2023-11-19T12:21:27;11.70;;;2.50;;
22415;SDS011;12204;50.600;4.608;2023-11-19T12:26:37;15.02;;;2.70;;
22415;SDS011;12204;50.600;4.608;2023-11-19T12:31:44;14.93;;;2.70;;
22415;SDS011;12204;50.600;4.608;2023-11-19T12:36:47;11.82;;;2.63;;
22415;SDS011;12204;50.600;4.608;2023-11-19T12:41:53;11.48;;;2.60;;
22415;SDS011;12204;50.600;4.608;2023-11-19T12:47:00;11.60;;;2.80;;
22415;SDS011;12204;50.600;4.608;2023-11-19T12:52:12;10.90;;;2.40;;
22415;SDS011;12204;50.600;4.608;2023-11-19T12:57:17;11.83;;;2.37;;
22415;SDS011;12204;50.600;4.608;2023-11-19T13:02:21;11.50;;;2.50;;
22415;SDS011;12204;50.600;4.608;2023-11-19T13:07:24;10.93;;;2.60;;
22415;SDS011;12204;50.600;4.608;2023-11-19T13:12:29;10.02;;;2.38;;
22415;SDS011;12204;50.600;4.608;2023-11-19T13:17:33;14.68;;;2.55;;
22415;SDS011;12204;50.600;4.608;2023-11-19T13:22:37;11.90;;;2.50;;
22415;SDS011;12204;50.600;4.608;2023-11-19T13:27:41;8.23;;;2.30;;
22415;SDS011;12204;50.600;4.608;2023-11-19T13:32:49;10.57;;;2.13;;
22415;SDS011;12204;50.600;4.608;2023-11-19T13:37:53;9.00;;;2.25;;
22415;SDS011;12204;50.600;4.608;2023-11-19T13:42:58;11.43;;;2.30;;
22415;SDS011;12204;50.600;4.608;2023-11-19T13:48:02;10.02;;;2.28;;
22415;SDS011;12204;50.600;4.608;2023-11-19T13:53:06;13.15;;;2.25;;
22415;SDS011;12204;50.600;4.608;2023-11-19T13:58:11;9.48;;;2.28;;
22415;SDS011;12204;50.600;4.608;2023-11-19T14:03:14;7.47;;;1.98;;
22415;SDS011;12204;50.600;4.608;2023-11-19T14:08:18;8.40;;;2.03;;
22415;SDS011;12204;50.600;4.608;2023-11-19T14:13:28;8.45;;;2.08;;
22415;SDS011;12204;50.600;4.608;2023-11-19T14:18:32;10.40;;;2.13;;
22415;SDS011;12204;50.600;4.608;2023-11-19T14:23:37;8.50;;;1.90;;
22415;SDS011;12204;50.600;4.608;2023-11-19T14:28:42;8.45;;;2.03;;
22415;SDS011;12204;50.600;4.608;2023-11-19T14:38:51;8.52;;;1.88;;
22415;SDS011;12204;50.600;4.608;2023-11-19T14:43:56;9.05;;;2.10;;
22415;SDS011;12204;50.600;4.608;2023-11-19T14:49:00;9.27;;;2.10;;
22415;SDS011;12204;50.600;4.608;2023-11-19T14:54:05;7.03;;;1.90;;
22415;SDS011;12204;50.600;4.608;2023-11-19T14:59:10;8.13;;;1.90;;
22415;SDS011;12204;50.600;4.608;2023-11-19T15:04:13;7.97;;;1.73;;
22415;SDS011;12204;50.600;4.608;2023-11-19T15:09:17;7.43;;;1.80;;
22415;SDS011;12204;50.600;4.608;2023-11-19T15:14:23;8.65;;;1.85;;
22415;SDS011;12204;50.600;4.608;2023-11-19T15:19:27;8.52;;;2.00;;
22415;SDS011;12204;50.600;4.608;2023-11-19T15:24:30;8.68;;;1.70;;
22415;SDS011;12204;50.600;4.608;2023-11-19T15:29:35;8.82;;;1.75;;
22415;SDS011;12204;50.600;4.608;2023-11-19T15:34:40;6.55;;;1.70;;
22415;SDS011;12204;50.600;4.608;2023-11-19T15:39:44;7.65;;;1.70;;
22415;SDS011;12204;50.600;4.608;2023-11-19T15:44:50;6.68;;;1.77;;
22415;SDS011;12204;50.600;4.608;2023-11-19T15:49:53;6.88;;;1.70;;
22415;SDS011;12204;50.600;4.608;2023-11-19T15:54:57;6.93;;;1.70;;
22415;SDS011;12204;50.600;4.608;2023-11-19T16:00:02;5.80;;;1.50;;
22415;SDS011;12204;50.600;4.608;2023-11-19T16:05:07;7.45;;;1.52;;
22415;SDS011;12204;50.600;4.608;2023-11-19T16:10:15;8.82;;;1.65;;
22415;SDS011;12204;50.600;4.608;2023-11-19T16:15:27;7.38;;;1.67;;
22415;SDS011;12204;50.600;4.608;2023-11-19T16:20:33;6.80;;;1.80;;
22415;SDS011;12204;50.600;4.608;2023-11-19T16:25:37;7.97;;;1.55;;
22415;SDS011;12204;50.600;4.608;2023-11-19T16:30:42;7.93;;;1.60;;
22415;SDS011;12204;50.600;4.608;2023-11-19T16:35:45;11.80;;;1.50;;
22415;SDS011;12204;50.600;4.608;2023-11-19T16:40:49;7.15;;;1.52;;
22415;SDS011;12204;50.600;4.608;2023-11-19T16:45:54;6.78;;;1.60;;
22415;SDS011;12204;50.600;4.608;2023-11-19T16:50:58;10.13;;;1.90;;
22415;SDS011;12204;50.600;4.608;2023-11-19T16:56:05;7.35;;;1.50;;
22415;SDS011;12204;50.600;4.608;2023-11-19T17:01:10;7.15;;;1.50;;
22415;SDS011;12204;50.600;4.608;2023-11-19T17:06:16;8.10;;;1.80;;
22415;SDS011;12204;50.600;4.608;2023-11-19T17:11:20;9.13;;;1.55;;
22415;SDS011;12204;50.600;4.608;2023-11-19T17:16:25;10.60;;;1.70;;
22415;SDS011;12204;50.600;4.608;2023-11-19T17:21:28;8.82;;;1.65;;
22415;SDS011;12204;50.600;4.608;2023-11-19T17:26:32;10.23;;;2.17;;
22415;SDS011;12204;50.600;4.608;2023-11-19T17:31:40;12.70;;;3.03;;
22415;SDS011;12204;50.600;4.608;2023-11-19T17:36:45;9.75;;;2.75;;
22415;SDS011;12204;50.600;4.608;2023-11-19T17:41:48;10.32;;;2.40;;
22415;SDS011;12204;50.600;4.608;2023-11-19T17:46:53;13.45;;;2.33;;
22415;SDS011;12204;50.600;4.608;2023-11-19T17:51:56;10.60;;;2.50;;
22415;SDS011;12204;50.600;4.608;2023-11-19T17:57:00;10.20;;;2.45;;
22415;SDS011;12204;50.600;4.608;2023-11-19T18:02:05;7.75;;;2.08;;
22415;SDS011;12204;50.600;4.608;2023-11-19T18:07:09;11.60;;;2.35;;
22415;SDS011;12204;50.600;4.608;2023-11-19T18:12:12;10.88;;;1.98;;
22415;SDS011;12204;50.600;4.608;2023-11-19T18:17:18;9.23;;;1.90;;
22415;SDS011;12204;50.600;4.608;2023-11-19T18:22:22;8.52;;;1.92;;
22415;SDS011;12204;50.600;4.608;2023-11-19T18:27:26;10.38;;;2.13;;
22415;SDS011;12204;50.600;4.608;2023-11-19T18:32:32;7.90;;;2.03;;
22415;SDS011;12204;50.600;4.608;2023-11-19T18:37:36;7.72;;;1.60;;
22415;SDS011;12204;50.600;4.608;2023-11-19T18:42:40;10.25;;;1.90;;
22415;SDS011;12204;50.600;4.608;2023-11-19T18:47:45;7.78;;;1.88;;
22415;SDS011;12204;50.600;4.608;2023-11-19T18:52:50;8.82;;;1.88;;
22415;SDS011;12204;50.600;4.608;2023-11-19T18:57:53;7.43;;;1.80;;
22415;SDS011;12204;50.600;4.608;2023-11-19T19:02:58;9.90;;;1.60;;
22415;SDS011;12204;50.600;4.608;2023-11-19T19:08:04;11.25;;;1.80;;
22415;SDS011;12204;50.600;4.608;2023-11-19T19:13:08;11.18;;;1.98;;
22415;SDS011;12204;50.600;4.608;2023-11-19T19:18:13;9.60;;;1.65;;
22415;SDS011;12204;50.600;4.608;2023-11-19T19:23:16;13.30;;;2.28;;
22415;SDS011;12204;50.600;4.608;2023-11-19T19:28:20;11.90;;;2.50;;
22415;SDS011;12204;50.600;4.608;2023-11-19T19:33:26;11.55;;;2.30;;
22415;SDS011;12204;50.600;4.608;2023-11-19T19:38:29;13.35;;;2.50;;
22415;SDS011;12204;50.600;4.608;2023-11-19T19:43:33;13.70;;;2.30;;
22415;SDS011;12204;50.600;4.608;2023-11-19T19:48:37;10.68;;;2.70;;
22415;SDS011;12204;50.600;4.608;2023-11-19T19:53:42;12.30;;;2.70;;
22415;SDS011;12204;50.600;4.608;2023-11-19T19:58:46;14.38;;;2.60;;
22415;SDS011;12204;50.600;4.608;2023-11-19T20:03:50;13.55;;;2.80;;
22415;SDS011;12204;50.600;4.608;2023-11-19T20:08:54;13.32;;;2.65;;
22415;SDS011;12204;50.600;4.608;2023-11-19T20:13:57;15.75;;;2.85;;
22415;SDS011;12204;50.600;4.608;2023-11-19T20:19:02;11.50;;;2.75;;
22415;SDS011;12204;50.600;4.608;2023-11-19T20:24:06;11.23;;;2.58;;
22415;SDS011;12204;50.600;4.608;2023-11-19T20:29:10;12.85;;;2.70;;
22415;SDS011;12204;50.600;4.608;2023-11-19T20:34:15;9.88;;;2.67;;
22415;SDS011;12204;50.600;4.608;2023-11-19T20:39:19;11.30;;;2.83;;
22415;SDS011;12204;50.600;4.608;2023-11-19T20:44:22;12.40;;;2.85;;
22415;SDS011;12204;50.600;4.608;2023-11-19T20:49:28;11.77;;;2.50;;
22415;SDS011;12204;50.600;4.608;2023-11-19T20:54:31;11.35;;;2.33;;
22415;SDS011;12204;50.600;4.608;2023-11-19T20:59:38;11.20;;;2.50;;
22415;SDS011;12204;50.600;4.608;2023-11-19T21:04:43;14.68;;;2.67;;
22415;SDS011;12204;50.600;4.608;2023-11-19T21:09:47;11.65;;;2.40;;
22415;SDS011;12204;50.600;4.608;2023-11-19T21:14:50;9.80;;;2.17;;
22415;SDS011;12204;50.600;4.608;2023-11-19T21:19:55;10.88;;;2.38;;
22415;SDS011;12204;50.600;4.608;2023-11-19T21:24:59;9.55;;;2.25;;
22415;SDS011;12204;50.600;4.608;2023-11-19T21:30:03;9.73;;;2.33;;
22415;SDS011;12204;50.600;4.608;2023-11-19T21:35:10;14.18;;;2.40;;
22415;SDS011;12204;50.600;4.608;2023-11-19T21:40:13;9.68;;;2.20;;
22415;SDS011;12204;50.600;4.608;2023-11-19T21:45:17;10.80;;;2.42;;
22415;SDS011;12204;50.600;4.608;2023-11-19T21:50:22;8.48;;;2.08;;
22415;SDS011;12204;50.600;4.608;2023-11-19T21:55:25;12.27;;;2.10;;
22415;SDS011;12204;50.600;4.608;2023-11-19T22:00:32;8.37;;;2.10;;
22415;SDS011;12204;50.600;4.608;2023-11-19T22:05:37;7.95;;;2.00;;
22415;SDS011;12204;50.600;4.608;2023-11-19T22:10:41;9.20;;;2.10;;
22415;SDS011;12204;50.600;4.608;2023-11-19T22:15:44;8.40;;;1.98;;
22415;SDS011;12204;50.600;4.608;2023-11-19T22:20:49;9.57;;;2.20;;
22415;SDS011;12204;50.600;4.608;2023-11-19T22:25:52;8.82;;;1.73;;
22415;SDS011;12204;50.600;4.608;2023-11-19T22:30:56;9.40;;;2.10;;
22415;SDS011;12204;50.600;4.608;2023-11-19T22:36:01;8.50;;;2.03;;
22415;SDS011;12204;50.600;4.608;2023-11-19T22:41:05;8.52;;;2.28;;
22415;SDS011;12204;50.600;4.608;2023-11-19T22:46:11;8.95;;;1.98;;
22415;SDS011;12204;50.600;4.608;2023-11-19T22:51:18;9.02;;;1.75;;
22415;SDS011;12204;50.600;4.608;2023-11-19T22:56:22;8.50;;;1.90;;
22415;SDS011;12204;50.600;4.608;2023-11-19T23:01:26;6.40;;;1.67;;
22415;SDS011;12204;50.600;4.608;2023-11-19T23:06:30;7.07;;;1.58;;
22415;SDS011;12204;50.600;4.608;2023-11-19T23:11:34;8.13;;;1.80;;
22415;SDS011;12204;50.600;4.608;2023-11-19T23:16:37;6.38;;;1.60;;
22415;SDS011;12204;50.600;4.608;2023-11-19T23:21:43;6.55;;;1.60;;
22415;SDS011;12204;50.600;4.608;2023-11-19T23:26:46;5.78;;;1.50;;
22415;SDS011;12204;50.600;4.608;2023-11-19T23:31:49;6.65;;;1.50;;
22415;SDS011;12204;50.600;4.608;2023-11-19T23:36:54;5.80;;;1.40;;
22415;SDS011;12204;50.600;4.608;2023-11-19T23:41:58;6.70;;;1.73;;
22415;SDS011;12204;50.600;4.608;2023-11-19T23:47:01;6.38;;;1.60;;
22415;SDS011;12204;50.600;4.608;2023-11-19T23:52:06;7.03;;;1.58;;
22415;SDS011;12204;50.600;4.608;2023-11-19T23:57:11;9.68;;;1.60;;
